Time;durP1;ratioP1;P1;durP2;ratioP2;P2;SDS_P1;SDS_P2;PMS_P1;PMS_P2;Temp;Humidity;BMP_temperature;BMP_pressure;BME280_temperature;BME280_humidity;BME280_pressure;Samples;Min_cycle;Max_cycle;Signal;HPM_P1;HPM_P2
2022/03/14 00:01:50;;;;;;;19.65;14.30;;;;;;;;;;5022793;28;20038;-90
2022/03/14 00:04:17;;;;;;;18.15;14.52;;;;;;;;;;5014018;28;20500;-89
2022/03/14 00:06:45;;;;;;;18.80;13.75;;;;;;;;;;5011538;28;20073;-89
2022/03/14 00:09:11;;;;;;;19.02;14.18;;;;;;;;;;5010648;28;20041;-89
2022/03/14 00:11:38;;;;;;;21.58;14.18;;;;;;;;;;5024938;28;20045;-89
2022/03/14 00:14:08;;;;;;;20.42;14.55;;;;;;;;;;5016977;28;20069;-89
2022/03/14 00:16:43;;;;;;;19.52;13.60;;;;;;;;;;5014110;28;20041;-88
2022/03/14 00:19:10;;;;;;;20.30;14.65;;;;;;;;;;5040277;28;20061;-89
2022/03/14 00:21:38;;;;;;;18.60;13.18;;;;;;;;;;5014009;28;20103;-88
2022/03/14 00:24:05;;;;;;;19.20;13.82;;;;;;;;;;5017310;28;20390;-89
2022/03/14 00:26:31;;;;;;;19.85;13.77;;;;;;;;;;5038990;28;20200;-89
2022/03/14 00:28:57;;;;;;;21.20;13.93;;;;;;;;;;5026382;28;20116;-89
2022/03/14 00:31:24;;;;;;;20.15;13.93;;;;;;;;;;5021745;28;20056;-89
2022/03/14 00:33:50;;;;;;;19.45;13.80;;;;;;;;;;5033841;28;20124;-89
2022/03/14 00:36:16;;;;;;;18.67;12.77;;;;;;;;;;5018172;28;20041;-89
2022/03/14 00:38:42;;;;;;;19.02;12.48;;;;;;;;;;5009407;28;20518;-88
2022/03/14 00:41:09;;;;;;;17.75;12.13;;;;;;;;;;5024017;28;20073;-89
2022/03/14 00:43:35;;;;;;;19.30;11.75;;;;;;;;;;5013369;28;20048;-89
2022/03/14 00:46:02;;;;;;;18.65;12.05;;;;;;;;;;5007620;28;20413;-88
2022/03/14 00:48:28;;;;;;;16.15;11.13;;;;;;;;;;5020945;28;20464;-89
2022/03/14 00:50:54;;;;;;;18.13;11.80;;;;;;;;;;5008166;28;20417;-90
2022/03/14 00:53:20;;;;;;;18.65;11.43;;;;;;;;;;5007884;28;20044;-89
2022/03/14 00:55:46;;;;;;;14.80;10.88;;;;;;;;;;5016723;28;20049;-89
2022/03/14 00:58:13;;;;;;;16.42;10.77;;;;;;;;;;5007732;28;20037;-89
2022/03/14 01:00:38;;;;;;;15.98;10.13;;;;;;;;;;5023329;28;20114;-88
2022/03/14 01:03:05;;;;;;;14.85;9.98;;;;;;;;;;5015472;28;20052;-90
2022/03/14 01:05:31;;;;;;;14.98;9.60;;;;;;;;;;5015797;28;20402;-90
2022/03/14 01:07:57;;;;;;;14.35;10.13;;;;;;;;;;5022644;28;20043;-89
2022/03/14 01:10:23;;;;;;;14.35;10.18;;;;;;;;;;5011117;28;20088;-89
2022/03/14 01:12:50;;;;;;;15.40;10.60;;;;;;;;;;5019997;28;20052;-88
2022/03/14 01:15:16;;;;;;;16.40;10.15;;;;;;;;;;5034885;28;20072;-88
2022/03/14 01:17:42;;;;;;;16.52;10.82;;;;;;;;;;5012419;28;20053;-89
2022/03/14 01:20:10;;;;;;;14.75;10.13;;;;;;;;;;5009416;28;20557;-89
2022/03/14 01:22:36;;;;;;;15.52;9.70;;;;;;;;;;5020141;28;20042;-89
2022/03/14 01:25:03;;;;;;;14.23;9.75;;;;;;;;;;5017425;28;20049;-89
2022/03/14 01:27:29;;;;;;;13.48;9.52;;;;;;;;;;5012578;28;20037;-90
2022/03/14 01:29:55;;;;;;;16.45;10.15;;;;;;;;;;5023097;28;20045;-89
2022/03/14 01:32:21;;;;;;;16.15;10.85;;;;;;;;;;5012984;28;20485;-89
2022/03/14 01:34:47;;;;;;;14.13;9.38;;;;;;;;;;5023567;28;20045;-90
2022/03/14 01:37:13;;;;;;;14.25;9.68;;;;;;;;;;5020624;28;20052;-89
2022/03/14 01:39:39;;;;;;;15.85;9.98;;;;;;;;;;5010445;28;20053;-89
2022/03/14 01:42:05;;;;;;;14.77;9.80;;;;;;;;;;5022049;28;20045;-89
2022/03/14 01:44:31;;;;;;;14.13;9.82;;;;;;;;;;5016190;28;20273;-89
2022/03/14 01:47:00;;;;;;;14.63;10.30;;;;;;;;;;5013983;28;20049;-89
2022/03/14 01:49:26;;;;;;;13.50;9.45;;;;;;;;;;5039586;28;20460;-90
2022/03/14 01:51:53;;;;;;;14.38;9.10;;;;;;;;;;5011853;28;20281;-90
2022/03/14 01:54:19;;;;;;;14.25;9.73;;;;;;;;;;5026973;28;20064;-90
2022/03/14 01:56:46;;;;;;;13.18;9.82;;;;;;;;;;5014246;28;20038;-89
2022/03/14 01:59:12;;;;;;;14.32;9.52;;;;;;;;;;5022905;28;20045;-90
2022/03/14 02:01:38;;;;;;;14.25;9.60;;;;;;;;;;5012016;28;20045;-89
2022/03/14 02:04:05;;;;;;;15.30;10.07;;;;;;;;;;5022348;28;20260;-89
2022/03/14 02:06:32;;;;;;;13.98;9.80;;;;;;;;;;5022325;28;20073;-89
2022/03/14 02:08:58;;;;;;;14.07;10.00;;;;;;;;;;5014291;28;20061;-89
2022/03/14 02:11:24;;;;;;;16.67;10.05;;;;;;;;;;5042998;28;20124;-89
2022/03/14 02:13:50;;;;;;;13.27;9.95;;;;;;;;;;5034187;28;20049;-89
2022/03/14 02:16:16;;;;;;;14.73;9.55;;;;;;;;;;5018715;28;20068;-89
2022/03/14 02:18:42;;;;;;;12.95;8.32;;;;;;;;;;5025101;28;20065;-90
2022/03/14 02:21:11;;;;;;;14.30;9.38;;;;;;;;;;5030388;28;20045;-89
2022/03/14 02:23:37;;;;;;;13.95;8.60;;;;;;;;;;5022910;28;20049;-89
2022/03/14 02:26:03;;;;;;;12.93;8.20;;;;;;;;;;5020715;28;20045;-89
2022/03/14 02:28:29;;;;;;;12.25;8.57;;;;;;;;;;5015455;28;20030;-89
2022/03/14 02:30:55;;;;;;;13.18;9.13;;;;;;;;;;5026276;28;20091;-89
2022/03/14 02:33:21;;;;;;;13.57;9.10;;;;;;;;;;5022518;28;20169;-89
2022/03/14 02:35:49;;;;;;;14.45;9.93;;;;;;;;;;5016525;28;20092;-89
2022/03/14 02:38:19;;;;;;;13.50;8.90;;;;;;;;;;5026567;28;20045;-89
2022/03/14 02:40:47;;;;;;;14.48;9.40;;;;;;;;;;5008567;28;20037;-89
2022/03/14 02:43:17;;;;;;;11.90;7.95;;;;;;;;;;5016270;28;20072;-89
2022/03/14 02:45:43;;;;;;;12.68;8.68;;;;;;;;;;5029461;28;20448;-89
2022/03/14 02:48:10;;;;;;;13.32;8.77;;;;;;;;;;5014873;28;20104;-90
2022/03/14 02:50:39;;;;;;;11.35;7.55;;;;;;;;;;5025589;28;20124;-89
2022/03/14 02:53:05;;;;;;;12.90;8.18;;;;;;;;;;5016362;28;20519;-89
2022/03/14 02:55:31;;;;;;;10.75;6.90;;;;;;;;;;5019104;28;20034;-89
2022/03/14 02:57:59;;;;;;;13.13;8.32;;;;;;;;;;5023706;28;20280;-89
2022/03/14 03:00:25;;;;;;;10.98;7.97;;;;;;;;;;5013210;28;20501;-89
2022/03/14 03:02:51;;;;;;;11.40;7.68;;;;;;;;;;5023106;28;20092;-89
2022/03/14 03:05:17;;;;;;;11.25;8.00;;;;;;;;;;5019154;28;20041;-89
2022/03/14 03:07:43;;;;;;;12.50;8.02;;;;;;;;;;5015270;28;20038;-89
2022/03/14 03:10:11;;;;;;;11.43;7.68;;;;;;;;;;5025195;28;20041;-90
2022/03/14 03:12:40;;;;;;;13.05;8.48;;;;;;;;;;5014249;28;20307;-89
2022/03/14 03:15:07;;;;;;;12.35;7.93;;;;;;;;;;5018954;28;20041;-89
2022/03/14 03:17:33;;;;;;;11.93;7.75;;;;;;;;;;5022894;28;20049;-89
2022/03/14 03:19:59;;;;;;;12.00;7.97;;;;;;;;;;5012443;28;20057;-89
2022/03/14 03:22:27;;;;;;;12.27;8.20;;;;;;;;;;5023302;28;20038;-89
2022/03/14 03:24:52;;;;;;;11.68;7.85;;;;;;;;;;5018274;28;20459;-89
2022/03/14 03:27:19;;;;;;;12.10;8.32;;;;;;;;;;5015585;28;20041;-89
2022/03/14 03:29:45;;;;;;;13.63;8.02;;;;;;;;;;5025108;28;20079;-89
2022/03/14 03:32:12;;;;;;;10.57;6.72;;;;;;;;;;5013593;28;20041;-89
2022/03/14 03:34:38;;;;;;;11.45;7.00;;;;;;;;;;5019827;28;20124;-89
2022/03/14 03:37:04;;;;;;;10.23;6.88;;;;;;;;;;5021078;28;20080;-89
2022/03/14 03:39:32;;;;;;;10.95;7.18;;;;;;;;;;5012311;28;20042;-89
2022/03/14 03:41:58;;;;;;;11.52;7.20;;;;;;;;;;5028655;28;20034;-89
2022/03/14 03:44:24;;;;;;;10.98;6.88;;;;;;;;;;5020562;28;20073;-90
2022/03/14 03:46:50;;;;;;;11.57;6.90;;;;;;;;;;5016838;28;20041;-89
2022/03/14 03:49:16;;;;;;;11.60;7.10;;;;;;;;;;5024290;28;20091;-89
2022/03/14 03:51:42;;;;;;;9.60;6.10;;;;;;;;;;5012183;28;20076;-89
2022/03/14 03:54:08;;;;;;;10.07;6.43;;;;;;;;;;5021031;28;20050;-89
2022/03/14 03:56:34;;;;;;;11.27;6.95;;;;;;;;;;5019453;28;20051;-89
2022/03/14 03:59:00;;;;;;;10.48;6.55;;;;;;;;;;5013165;28;20072;-89
2022/03/14 04:01:28;;;;;;;10.18;6.57;;;;;;;;;;5024296;28;20053;-89
2022/03/14 04:03:54;;;;;;;10.90;7.07;;;;;;;;;;5015225;28;20537;-89
2022/03/14 04:06:29;;;;;;;10.10;6.40;;;;;;;;;;5017886;28;20478;-89
2022/03/14 04:08:55;;;;;;;9.60;5.80;;;;;;;;;;5024096;28;20041;-89
2022/03/14 04:11:21;;;;;;;8.63;5.60;;;;;;;;;;5011843;28;20041;-88
2022/03/14 04:13:58;;;;;;;9.70;5.57;;;;;;;;;;5020787;28;20046;-89
2022/03/14 04:16:24;;;;;;;9.85;5.82;;;;;;;;;;5020675;28;20099;-89
2022/03/14 04:18:50;;;;;;;9.73;5.65;;;;;;;;;;5011444;28;20079;-89
2022/03/14 04:21:17;;;;;;;8.20;5.20;;;;;;;;;;5023524;28;20046;-89
2022/03/14 04:23:43;;;;;;;9.23;5.97;;;;;;;;;;5018903;28;20034;-88
2022/03/14 04:26:09;;;;;;;9.32;5.57;;;;;;;;;;5021315;28;20042;-90
2022/03/14 04:28:36;;;;;;;8.50;5.18;;;;;;;;;;4991636;28;20041;-90
2022/03/14 04:31:06;;;;;;;7.95;5.10;;;;;;;;;;5011158;28;20053;-89
2022/03/14 04:33:32;;;;;;;7.70;4.78;;;;;;;;;;5019774;28;20053;-89
2022/03/14 04:35:58;;;;;;;8.75;5.32;;;;;;;;;;5019945;28;20413;-89
2022/03/14 04:38:25;;;;;;;8.40;4.88;;;;;;;;;;5012271;28;20041;-89
2022/03/14 04:40:51;;;;;;;8.35;5.30;;;;;;;;;;5023576;28;20127;-89
2022/03/14 04:43:17;;;;;;;8.20;4.93;;;;;;;;;;5011706;28;20073;-89
2022/03/14 04:45:43;;;;;;;7.53;4.70;;;;;;;;;;5023988;28;20125;-89
2022/03/14 04:48:09;;;;;;;7.25;4.60;;;;;;;;;;5007810;28;20482;-89
2022/03/14 04:50:36;;;;;;;7.97;4.60;;;;;;;;;;5023616;28;20041;-88
2022/03/14 04:53:02;;;;;;;6.80;4.22;;;;;;;;;;5013936;28;20084;-89
2022/03/14 04:55:28;;;;;;;8.13;4.88;;;;;;;;;;5016986;28;20045;-89
2022/03/14 04:57:54;;;;;;;6.57;3.60;;;;;;;;;;5021560;28;20041;-89
2022/03/14 05:00:21;;;;;;;7.07;4.18;;;;;;;;;;5010950;28;20052;-89
2022/03/14 05:02:47;;;;;;;7.22;4.15;;;;;;;;;;5015612;28;20034;-89
2022/03/14 05:05:13;;;;;;;8.77;4.60;;;;;;;;;;5017252;28;20048;-89
2022/03/14 05:07:40;;;;;;;8.55;4.20;;;;;;;;;;5013716;28;20034;-88
2022/03/14 05:10:10;;;;;;;7.60;4.13;;;;;;;;;;5024640;28;20048;-88
2022/03/14 05:12:37;;;;;;;7.72;4.18;;;;;;;;;;5021371;28;20411;-89
2022/03/14 05:15:03;;;;;;;7.10;4.85;;;;;;;;;;5017216;28;20042;-89
2022/03/14 05:17:30;;;;;;;6.60;4.03;;;;;;;;;;5013876;28;20070;-89
2022/03/14 05:19:57;;;;;;;6.80;4.35;;;;;;;;;;5023187;28;20056;-88
2022/03/14 05:22:23;;;;;;;7.40;3.78;;;;;;;;;;5012515;28;20421;-89
2022/03/14 05:24:49;;;;;;;7.60;3.85;;;;;;;;;;5017959;28;20037;-89
2022/03/14 05:27:15;;;;;;;7.70;4.15;;;;;;;;;;5019885;28;20611;-89
2022/03/14 05:29:41;;;;;;;6.43;3.90;;;;;;;;;;5010821;28;20045;-89
2022/03/14 05:32:08;;;;;;;7.05;4.13;;;;;;;;;;5022561;28;20485;-89
2022/03/14 05:34:34;;;;;;;7.57;4.70;;;;;;;;;;5015526;28;20048;-89
2022/03/14 05:37:01;;;;;;;7.30;4.35;;;;;;;;;;5029006;28;20042;-88
2022/03/14 05:39:27;;;;;;;8.02;4.38;;;;;;;;;;5014672;28;20042;-90
2022/03/14 05:41:54;;;;;;;7.72;4.78;;;;;;;;;;5027148;28;20042;-90
2022/03/14 05:44:21;;;;;;;7.80;4.60;;;;;;;;;;5018845;28;20045;-89
2022/03/14 05:46:47;;;;;;;6.53;3.72;;;;;;;;;;5020404;28;20593;-89
2022/03/14 05:49:13;;;;;;;8.40;4.55;;;;;;;;;;5026585;28;20049;-89
2022/03/14 05:51:39;;;;;;;8.32;4.13;;;;;;;;;;5014457;28;20037;-89
2022/03/14 05:54:05;;;;;;;6.45;4.20;;;;;;;;;;5023247;28;20053;-89
2022/03/14 05:56:31;;;;;;;7.20;3.85;;;;;;;;;;5021814;28;20476;-89
2022/03/14 05:58:58;;;;;;;7.65;4.53;;;;;;;;;;5015702;28;20096;-89
2022/03/14 06:01:24;;;;;;;8.45;4.20;;;;;;;;;;5026518;28;20041;-89
2022/03/14 06:03:51;;;;;;;8.38;4.88;;;;;;;;;;5016980;28;20045;-88
2022/03/14 06:06:17;;;;;;;9.02;5.30;;;;;;;;;;5019789;28;20095;-89
2022/03/14 06:08:43;;;;;;;7.35;4.40;;;;;;;;;;5024550;28;20092;-89
2022/03/14 06:11:09;;;;;;;8.52;4.82;;;;;;;;;;5014060;28;20131;-88
2022/03/14 06:13:35;;;;;;;7.57;4.30;;;;;;;;;;5024478;28;20390;-89
2022/03/14 06:16:02;;;;;;;8.48;5.20;;;;;;;;;;5020224;28;20494;-89
2022/03/14 06:18:29;;;;;;;8.48;5.15;;;;;;;;;;5026023;28;20045;-89
2022/03/14 06:20:55;;;;;;;8.98;4.93;;;;;;;;;;5030321;28;20046;-87
2022/03/14 06:23:21;;;;;;;9.80;5.28;;;;;;;;;;5026840;28;20048;-88
2022/03/14 06:25:49;;;;;;;8.77;5.05;;;;;;;;;;5012607;28;20585;-88
2022/03/14 06:28:15;;;;;;;8.80;5.20;;;;;;;;;;5023385;28;20523;-87
2022/03/14 06:30:41;;;;;;;9.95;6.07;;;;;;;;;;5013759;28;20054;-87
2022/03/14 06:33:07;;;;;;;10.05;6.35;;;;;;;;;;5027238;28;20053;-88
2022/03/14 06:35:35;;;;;;;9.20;5.55;;;;;;;;;;5041059;28;20041;-87
2022/03/14 06:38:04;;;;;;;8.13;5.18;;;;;;;;;;5020450;28;20099;-87
2022/03/14 06:40:30;;;;;;;9.95;6.10;;;;;;;;;;5019603;28;20041;-87
2022/03/14 06:42:57;;;;;;;9.50;6.00;;;;;;;;;;5025169;28;20044;-87
2022/03/14 06:45:23;;;;;;;9.60;5.78;;;;;;;;;;5011536;28;20094;-86
2022/03/14 06:47:50;;;;;;;8.90;6.20;;;;;;;;;;5012199;28;20117;-87
2022/03/14 06:50:16;;;;;;;10.30;5.53;;;;;;;;;;5010892;28;20053;-86
2022/03/14 06:52:42;;;;;;;9.82;6.50;;;;;;;;;;5025457;28;20401;-85
2022/03/14 06:55:10;;;;;;;9.73;6.72;;;;;;;;;;5017518;28;20038;-86
2022/03/14 06:57:36;;;;;;;10.20;6.60;;;;;;;;;;5017268;28;20725;-85
2022/03/14 07:00:02;;;;;;;10.15;6.65;;;;;;;;;;5025293;28;20053;-86
2022/03/14 07:02:28;;;;;;;9.65;6.78;;;;;;;;;;5009375;28;20084;-86
2022/03/14 07:04:54;;;;;;;9.57;5.97;;;;;;;;;;5016938;28;20457;-87
2022/03/14 07:07:21;;;;;;;9.20;6.75;;;;;;;;;;5017907;28;20074;-86
2022/03/14 07:09:46;;;;;;;10.88;7.28;;;;;;;;;;5024551;28;20083;-85
2022/03/14 07:12:13;;;;;;;10.88;7.28;;;;;;;;;;5012831;28;20064;-86
2022/03/14 07:14:39;;;;;;;10.98;6.93;;;;;;;;;;5022268;28;20122;-85
2022/03/14 07:17:06;;;;;;;10.68;7.32;;;;;;;;;;5019557;28;20069;-86
2022/03/14 07:19:32;;;;;;;10.95;7.93;;;;;;;;;;5014212;28;20181;-87
2022/03/14 07:21:58;;;;;;;12.50;7.97;;;;;;;;;;5025325;28;20037;-87
2022/03/14 07:24:24;;;;;;;11.10;7.93;;;;;;;;;;5015217;28;20500;-86
2022/03/14 07:26:51;;;;;;;11.68;8.27;;;;;;;;;;5019246;28;20513;-87
2022/03/14 07:29:17;;;;;;;13.82;8.18;;;;;;;;;;5030178;28;20485;-87
2022/03/14 07:31:43;;;;;;;11.68;8.05;;;;;;;;;;5054331;28;20048;-87
2022/03/14 07:34:09;;;;;;;12.13;8.45;;;;;;;;;;5032804;28;20048;-87
2022/03/14 07:36:37;;;;;;;10.90;7.75;;;;;;;;;;5030524;28;20045;-88
2022/03/14 07:39:03;;;;;;;11.70;8.38;;;;;;;;;;5016096;28;20049;-88
2022/03/14 07:41:29;;;;;;;11.60;8.45;;;;;;;;;;5024731;28;20034;-88
2022/03/14 07:43:55;;;;;;;13.30;8.63;;;;;;;;;;5013855;28;20119;-89
2022/03/14 07:46:21;;;;;;;11.45;7.93;;;;;;;;;;5023804;28;20128;-88
2022/03/14 07:48:47;;;;;;;12.60;8.20;;;;;;;;;;5003605;28;20095;-88
2022/03/14 07:51:13;;;;;;;12.18;8.63;;;;;;;;;;5031446;28;20045;-89
2022/03/14 07:53:39;;;;;;;12.00;8.25;;;;;;;;;;5025734;28;20041;-88
2022/03/14 07:56:05;;;;;;;13.40;9.18;;;;;;;;;;5026874;28;20140;-89
2022/03/14 07:58:31;;;;;;;12.65;8.90;;;;;;;;;;5030669;28;20059;-89
2022/03/14 08:00:57;;;;;;;12.75;8.90;;;;;;;;;;5029396;28;20041;-88
2022/03/14 08:03:24;;;;;;;12.45;8.95;;;;;;;;;;5020348;28;20548;-89
2022/03/14 08:05:53;;;;;;;13.70;9.20;;;;;;;;;;5027118;28;20303;-88
2022/03/14 08:08:19;;;;;;;11.30;8.07;;;;;;;;;;5011409;28;20041;-88
2022/03/14 08:10:47;;;;;;;13.10;9.07;;;;;;;;;;5028738;28;20487;-88
2022/03/14 08:13:13;;;;;;;13.93;9.70;;;;;;;;;;5009658;28;20057;-88
2022/03/14 08:15:39;;;;;;;14.00;8.63;;;;;;;;;;5025277;28;20148;-88
2022/03/14 08:18:07;;;;;;;12.07;8.98;;;;;;;;;;5027193;28;20042;-87
2022/03/14 08:20:33;;;;;;;13.55;9.52;;;;;;;;;;5026904;28;20053;-87
2022/03/14 08:23:02;;;;;;;12.38;8.95;;;;;;;;;;5010533;28;20041;-87
2022/03/14 08:25:29;;;;;;;13.82;9.20;;;;;;;;;;5027195;28;20400;-87
2022/03/14 08:27:55;;;;;;;14.35;10.00;;;;;;;;;;5037929;28;20096;-86
2022/03/14 08:30:21;;;;;;;11.27;8.13;;;;;;;;;;5026728;28;20049;-86
2022/03/14 08:32:48;;;;;;;12.60;9.32;;;;;;;;;;5027023;28;20052;-86
2022/03/14 08:35:20;;;;;;;13.93;9.73;;;;;;;;;;5027179;28;20489;-86
2022/03/14 08:37:47;;;;;;;13.70;10.10;;;;;;;;;;5052479;28;20064;-86
2022/03/14 08:40:14;;;;;;;14.68;9.95;;;;;;;;;;5037604;28;20049;-87
2022/03/14 08:42:41;;;;;;;13.55;9.98;;;;;;;;;;5048452;28;20069;-86
2022/03/14 08:45:08;;;;;;;13.90;9.95;;;;;;;;;;5050406;28;20073;-87
2022/03/14 08:47:34;;;;;;;12.77;9.00;;;;;;;;;;5047160;28;20076;-86
2022/03/14 08:50:02;;;;;;;13.70;10.70;;;;;;;;;;5035181;28;20045;-86
2022/03/14 08:52:28;;;;;;;12.80;9.70;;;;;;;;;;5024928;28;20048;-86
2022/03/14 08:54:55;;;;;;;13.63;9.63;;;;;;;;;;5014255;28;20052;-85
2022/03/14 08:57:21;;;;;;;13.75;9.88;;;;;;;;;;5017355;28;20034;-86
2022/03/14 08:59:47;;;;;;;13.68;9.82;;;;;;;;;;5020654;28;20179;-86
2022/03/14 09:02:13;;;;;;;14.68;10.88;;;;;;;;;;5009976;28;20045;-86
2022/03/14 09:04:39;;;;;;;14.65;10.75;;;;;;;;;;5026611;28;20504;-86
2022/03/14 09:07:05;;;;;;;15.00;10.27;;;;;;;;;;5025179;28;20120;-86
2022/03/14 09:09:31;;;;;;;14.32;10.70;;;;;;;;;;5025942;28;20038;-86
2022/03/14 09:11:58;;;;;;;14.27;10.80;;;;;;;;;;5027615;28;20147;-86
2022/03/14 09:14:24;;;;;;;13.75;10.18;;;;;;;;;;5040250;28;20507;-86
2022/03/14 09:16:50;;;;;;;14.27;10.50;;;;;;;;;;5030623;28;20116;-86
2022/03/14 09:19:16;;;;;;;13.88;10.35;;;;;;;;;;5032811;28;20053;-86
2022/03/14 09:21:42;;;;;;;14.35;10.18;;;;;;;;;;5013424;28;20041;-86
2022/03/14 09:24:08;;;;;;;14.70;10.65;;;;;;;;;;5024941;28;20037;-87
2022/03/14 09:26:36;;;;;;;14.68;10.98;;;;;;;;;;5030019;28;20033;-87
2022/03/14 09:29:03;;;;;;;15.23;11.30;;;;;;;;;;5029888;28;20115;-88
2022/03/14 09:31:29;;;;;;;14.43;11.07;;;;;;;;;;5029449;28;20037;-87
2022/03/14 09:33:55;;;;;;;15.00;11.30;;;;;;;;;;5027519;28;20034;-87
2022/03/14 09:36:21;;;;;;;15.05;10.95;;;;;;;;;;5028395;28;20041;-87
2022/03/14 09:38:47;;;;;;;13.85;10.70;;;;;;;;;;5028246;28;20485;-87
2022/03/14 09:41:16;;;;;;;15.05;11.57;;;;;;;;;;5030061;28;20133;-87
2022/03/14 09:43:44;;;;;;;14.60;11.43;;;;;;;;;;5027365;28;20788;-87
2022/03/14 09:46:10;;;;;;;15.13;11.77;;;;;;;;;;5022498;28;20061;-86
2022/03/14 09:48:39;;;;;;;16.10;12.25;;;;;;;;;;5030022;28;20037;-87
2022/03/14 09:51:05;;;;;;;17.08;12.75;;;;;;;;;;5027339;28;20050;-87
2022/03/14 09:53:33;;;;;;;16.05;12.38;;;;;;;;;;5030544;28;20448;-87
2022/03/14 09:55:59;;;;;;;15.63;11.75;;;;;;;;;;5058203;28;20095;-86
2022/03/14 09:58:26;;;;;;;17.10;12.65;;;;;;;;;;5055340;28;20037;-87
2022/03/14 10:00:52;;;;;;;16.63;12.13;;;;;;;;;;5035433;28;20056;-86
2022/03/14 10:03:18;;;;;;;16.50;12.57;;;;;;;;;;5056237;28;20036;-87
2022/03/14 10:05:45;;;;;;;19.92;14.50;;;;;;;;;;5039407;28;20036;-88
2022/03/14 10:08:11;;;;;;;19.23;13.98;;;;;;;;;;5038746;28;20116;-88
2022/03/14 10:10:39;;;;;;;21.63;15.43;;;;;;;;;;5030749;28;20041;-88
2022/03/14 10:13:10;;;;;;;24.27;16.92;;;;;;;;;;5030375;28;20083;-87
2022/03/14 10:15:37;;;;;;;28.52;18.83;;;;;;;;;;5034704;28;20050;-87
2022/03/14 10:18:16;;;;;;;26.45;18.45;;;;;;;;;;5028887;28;20095;-90
2022/03/14 10:21:02;;;;;;;24.80;17.00;;;;;;;;;;5029139;28;20057;-88
2022/03/14 10:23:29;;;;;;;16.13;8.82;;;;;;;;;;5031913;28;20079;-88
2022/03/14 10:25:57;;;;;;;12.63;7.68;;;;;;;;;;5032627;28;20040;-88
2022/03/14 10:28:27;;;;;;;12.38;6.65;;;;;;;;;;5030685;28;20078;-88
2022/03/14 10:30:53;;;;;;;13.13;7.00;;;;;;;;;;5035095;28;20038;-89
2022/03/14 10:33:23;;;;;;;12.73;6.53;;;;;;;;;;5031673;28;20049;-89
2022/03/14 10:35:52;;;;;;;13.10;7.10;;;;;;;;;;5031068;28;20045;-88
2022/03/14 10:38:18;;;;;;;14.27;8.00;;;;;;;;;;5031054;28;20398;-88
2022/03/14 10:40:44;;;;;;;15.02;7.93;;;;;;;;;;5023428;28;20141;-87
2022/03/14 10:43:14;;;;;;;17.63;8.98;;;;;;;;;;5026301;28;20070;-88
2022/03/14 10:45:40;;;;;;;16.55;8.88;;;;;;;;;;5037290;28;20084;-88
2022/03/14 10:48:06;;;;;;;18.08;9.75;;;;;;;;;;5043942;28;20033;-89
2022/03/14 10:50:39;;;;;;;19.83;11.20;;;;;;;;;;5030890;28;20044;-90
2022/03/14 10:53:07;;;;;;;19.55;11.18;;;;;;;;;;5033073;28;20528;-90
2022/03/14 10:55:34;;;;;;;17.63;10.45;;;;;;;;;;5027372;28;20049;-89
2022/03/14 10:58:07;;;;;;;19.13;10.57;;;;;;;;;;5020832;28;20030;-89
2022/03/14 11:00:49;;;;;;;21.13;11.73;;;;;;;;;;5012323;28;20496;-89
2022/03/14 11:03:21;;;;;;;21.80;12.40;;;;;;;;;;5025335;28;20045;-89
2022/03/14 11:05:47;;;;;;;20.88;12.88;;;;;;;;;;5031032;28;20033;-88
2022/03/14 11:08:28;;;;;;;24.05;12.82;;;;;;;;;;5028252;28;20073;-88
2022/03/14 11:10:55;;;;;;;24.63;12.88;;;;;;;;;;5034552;28;20036;-91
2022/03/14 11:13:21;;;;;;;23.45;14.55;;;;;;;;;;5021728;28;20037;-90
2022/03/14 11:15:48;;;;;;;23.17;13.90;;;;;;;;;;5034869;28;20037;-88
2022/03/14 11:18:14;;;;;;;25.55;14.98;;;;;;;;;;5041325;28;20098;-88
2022/03/14 11:20:40;;;;;;;24.75;14.70;;;;;;;;;;5039292;28;20045;-88
2022/03/14 11:23:07;;;;;;;25.33;15.05;;;;;;;;;;5057907;28;20037;-89
2022/03/14 11:25:33;;;;;;;26.13;14.65;;;;;;;;;;5051122;28;20640;-90
2022/03/14 11:28:00;;;;;;;25.77;14.02;;;;;;;;;;5033305;28;20183;-88
2022/03/14 11:30:27;;;;;;;22.60;13.90;;;;;;;;;;5056523;28;20055;-88
2022/03/14 11:32:53;;;;;;;26.45;14.43;;;;;;;;;;5050837;28;20515;-88
2022/03/14 11:35:20;;;;;;;25.13;14.80;;;;;;;;;;5040630;28;20044;-87
2022/03/14 11:37:46;;;;;;;22.75;13.70;;;;;;;;;;5009250;28;20084;-88
2022/03/14 11:40:12;;;;;;;26.45;13.18;;;;;;;;;;5026272;28;20049;-87
2022/03/14 11:42:39;;;;;;;22.35;12.07;;;;;;;;;;5027151;28;20563;-87
2022/03/14 11:45:08;;;;;;;21.95;12.43;;;;;;;;;;5014370;28;20038;-87
2022/03/14 11:47:35;;;;;;;19.77;11.75;;;;;;;;;;5011934;28;20037;-88
2022/03/14 11:50:01;;;;;;;21.15;11.43;;;;;;;;;;5025948;28;20048;-86
2022/03/14 11:52:38;;;;;;;20.30;11.35;;;;;;;;;;5017438;28;20469;-87
2022/03/14 11:55:14;;;;;;;19.65;10.32;;;;;;;;;;5008015;28;20226;-86
2022/03/14 11:57:41;;;;;;;19.70;10.75;;;;;;;;;;4997535;28;20055;-86
2022/03/14 12:00:30;;;;;;;19.00;10.10;;;;;;;;;;5024309;28;20468;-87
2022/03/14 12:02:57;;;;;;;21.00;11.27;;;;;;;;;;5018410;28;20441;-86
2022/03/14 12:05:33;;;;;;;18.25;11.43;;;;;;;;;;5033208;28;20462;-86
2022/03/14 12:08:07;;;;;;;19.90;12.20;;;;;;;;;;5025430;28;20045;-86
2022/03/14 12:10:34;;;;;;;19.35;11.82;;;;;;;;;;5023854;28;20162;-88
2022/03/14 12:13:01;;;;;;;19.27;12.50;;;;;;;;;;5044077;28;20369;-86
2022/03/14 12:15:43;;;;;;;21.80;13.27;;;;;;;;;;5027377;28;20417;-85
2022/03/14 12:18:27;;;;;;;22.70;13.00;;;;;;;;;;5025737;28;20040;-86
2022/03/14 12:20:54;;;;;;;24.67;14.60;;;;;;;;;;5025159;28;20515;-85
2022/03/14 12:23:28;;;;;;;21.33;14.20;;;;;;;;;;5018178;28;20409;-87
2022/03/14 12:25:55;;;;;;;24.60;14.85;;;;;;;;;;5027314;28;20045;-85
2022/03/14 12:28:34;;;;;;;22.58;14.07;;;;;;;;;;5027152;28;20403;-86
2022/03/14 12:31:03;;;;;;;26.67;15.45;;;;;;;;;;5016721;28;20158;-86
2022/03/14 12:33:31;;;;;;;22.35;14.25;;;;;;;;;;5014932;28;20046;-87
2022/03/14 12:35:57;;;;;;;24.00;14.52;;;;;;;;;;5013378;28;20045;-86
2022/03/14 12:38:23;;;;;;;27.25;15.18;;;;;;;;;;5013947;28;20126;-84
2022/03/14 12:40:51;;;;;;;26.58;15.00;;;;;;;;;;5019466;28;20537;-85
2022/03/14 12:43:17;;;;;;;27.38;15.68;;;;;;;;;;5013066;28;20041;-85
2022/03/14 12:45:50;;;;;;;24.45;15.35;;;;;;;;;;4999397;28;20108;-85
2022/03/14 12:48:20;;;;;;;31.52;17.45;;;;;;;;;;5028572;28;20042;-86
2022/03/14 12:50:49;;;;;;;26.88;16.88;;;;;;;;;;5010705;28;20057;-87
2022/03/14 12:53:16;;;;;;;29.08;19.10;;;;;;;;;;5014330;28;20456;-85
2022/03/14 12:55:45;;;;;;;29.40;19.60;;;;;;;;;;5027171;28;20037;-84
2022/03/14 12:58:30;;;;;;;32.38;20.67;;;;;;;;;;5026158;28;20441;-85
2022/03/14 13:00:57;;;;;;;32.60;22.33;;;;;;;;;;5023691;28;20524;-85
2022/03/14 13:03:25;;;;;;;32.92;22.73;;;;;;;;;;5027465;28;20049;-85
2022/03/14 13:05:51;;;;;;;33.03;22.27;;;;;;;;;;5029835;28;20038;-85
2022/03/14 13:08:17;;;;;;;34.50;23.77;;;;;;;;;;5015111;28;20104;-85
2022/03/14 13:10:47;;;;;;;30.92;21.88;;;;;;;;;;5005712;28;20068;-85
2022/03/14 13:13:14;;;;;;;35.13;23.88;;;;;;;;;;5035262;28;20045;-86
2022/03/14 13:15:41;;;;;;;31.48;21.50;;;;;;;;;;5011287;28;20068;-85
2022/03/14 13:18:18;;;;;;;36.08;22.65;;;;;;;;;;5008581;28;20048;-86
2022/03/14 13:20:45;;;;;;;29.90;22.27;;;;;;;;;;5024299;28;20087;-86
2022/03/14 13:23:18;;;;;;;32.55;22.10;;;;;;;;;;5021884;28;20037;-86
2022/03/14 13:25:48;;;;;;;32.20;21.42;;;;;;;;;;5028798;28;20041;-85
2022/03/14 13:28:28;;;;;;;30.40;20.80;;;;;;;;;;5020124;28;20095;-85
2022/03/14 13:30:54;;;;;;;29.65;19.23;;;;;;;;;;5018254;28;20165;-86
2022/03/14 13:33:27;;;;;;;27.75;18.33;;;;;;;;;;5008240;28;20455;-85
2022/03/14 13:35:54;;;;;;;24.52;17.45;;;;;;;;;;5014026;28;20046;-88
2022/03/14 13:38:35;;;;;;;25.05;16.17;;;;;;;;;;5017318;28;20512;-88
2022/03/14 13:41:03;;;;;;;27.63;16.67;;;;;;;;;;5034806;28;20041;-87
2022/03/14 13:43:29;;;;;;;23.40;15.68;;;;;;;;;;5008643;28;20129;-89
2022/03/14 13:46:18;;;;;;;21.13;14.20;;;;;;;;;;5014259;28;20040;-87
2022/03/14 13:48:57;;;;;;;24.70;14.55;;;;;;;;;;5019726;28;20455;-89
2022/03/14 13:51:43;;;;;;;23.08;14.70;;;;;;;;;;5024700;28;20100;-86
2022/03/14 13:54:14;;;;;;;19.95;14.10;;;;;;;;;;5008270;28;20121;-88
2022/03/14 13:56:47;;;;;;;22.60;14.20;;;;;;;;;;4997649;28;20037;-87
2022/03/14 13:59:32;;;;;;;22.85;14.45;;;;;;;;;;5029529;28;20072;-88
2022/03/14 14:01:59;;;;;;;20.80;13.02;;;;;;;;;;5016811;28;20125;-84
2022/03/14 14:04:30;;;;;;;18.17;12.90;;;;;;;;;;5011451;28;20421;-86
2022/03/14 14:06:58;;;;;;;18.65;12.70;;;;;;;;;;5029701;28;20052;-88
2022/03/14 14:09:26;;;;;;;22.65;11.82;;;;;;;;;;5043023;28;20038;-89
2022/03/14 14:12:14;;;;;;;18.20;11.25;;;;;;;;;;5024388;28;20493;-89
2022/03/14 14:14:40;;;;;;;17.30;11.05;;;;;;;;;;4998633;28;20038;-83
2022/03/14 14:17:14;;;;;;;18.13;11.05;;;;;;;;;;5010804;28;20061;-83
2022/03/14 14:20:02;;;;;;;16.70;11.68;;;;;;;;;;5026603;28;20133;-83
2022/03/14 14:22:29;;;;;;;18.83;11.52;;;;;;;;;;5003830;28;20409;-86
2022/03/14 14:24:55;;;;;;;19.63;10.50;;;;;;;;;;5026921;28;20042;-84
2022/03/14 14:27:26;;;;;;;15.10;9.80;;;;;;;;;;5020432;28;20040;-84
2022/03/14 14:29:59;;;;;;;17.15;10.07;;;;;;;;;;5028617;28;20099;-82